7OK7 weather

City of Faith Heliport
Tulsa, Oklahoma, United States

Public forecast

Using degrees Fahrenheit for public forecast. Weather courtesy of forecast.io.

METAR (pilot weather report)

Closest report is Richard Lloyd Jones Jr Airport, 1.5 nm (2.8 km) W. Retrieved 2019/04/20 15:53 UTC (43 minutes ago):

KRVS 201553Z 25004KT 10SM CLR 19/04 A3004 RMK AO2 SLP180 T01940039

TAF (pilot weather forecast)

Closest forecast is Richard Lloyd Jones Jr Airport, 1.5 nm (2.8 km) W. Retrieved 2019/04/20 12:22 UTC (4 hours ago):

TAF KRVS 201120Z 2012/2112 00000KT P6SM SKC FM201600 19010KT P6SM SKC